首页
METAR-TAF:

METAR-TAF

机场 :

Naval Auxiliary Landing Field Fentress

切萨皮克, 弗吉尼亚州, 美国

纬度: 36-42-03N, 经度: 076-07-42W, 海拔: 3米

当前天气观测

该预报发布于24分钟前的13:56 UTC
风速3节,风向多变
温度 7°C
湿度 53%
气压 1026 hPa
能見度: 16.1公里
天空无云

METAR: KNFE 231356Z AUTO VRB03KT 10SM CLR 07/M02 A3031 RMK AO2 SLP266 T00671017

时间: 09:20 (14:20 UTC)


TAF: 丢失

超过4000个机场的气象观测和天气预报(METAR&TAF报告)。

可查询的气象台以黄色和红色小点在地图上表示。

将鼠标移到小点上方,可查看气象台名称。

然后点击查看天气观测和预报。

如需切换地图:点击带黑十字的绿色按钮放大地图;点击带横线的绿色按钮缩小地图;或者点击绿色箭头查看邻近地区的地图。


METAR-TAF: